sensor_id;sensor_type;location;lat;lon;timestamp;temperature;humidity
74534;SHT31;63012;51.096;-115.366;2022-11-20T00:01:29;-3.29;51.88
74534;SHT31;63012;51.096;-115.366;2022-11-20T00:03:57;-3.37;52.33
74534;SHT31;63012;51.096;-115.366;2022-11-20T00:06:25;-3.44;52.68
74534;SHT31;63012;51.096;-115.366;2022-11-20T00:08:57;-3.52;53.01
74534;SHT31;63012;51.096;-115.366;2022-11-20T00:11:27;-3.57;52.44
74534;SHT31;63012;51.096;-115.366;2022-11-20T00:13:56;-3.61;52.72
74534;SHT31;63012;51.096;-115.366;2022-11-20T00:16:27;-3.67;53.11
74534;SHT31;63012;51.096;-115.366;2022-11-20T00:18:56;-3.73;52.62
74534;SHT31;63012;51.096;-115.366;2022-11-20T00:21:24;-3.76;53.32
74534;SHT31;63012;51.096;-115.366;2022-11-20T00:23:54;-3.81;53.09
74534;SHT31;63012;51.096;-115.366;2022-11-20T00:26:23;-3.87;53.84
74534;SHT31;63012;51.096;-115.366;2022-11-20T00:28:54;-3.91;53.71
74534;SHT31;63012;51.096;-115.366;2022-11-20T00:31:23;-3.90;53.53
74534;SHT31;63012;51.096;-115.366;2022-11-20T00:33:51;-3.91;53.53
74534;SHT31;63012;51.096;-115.366;2022-11-20T00:36:20;-3.95;53.79
74534;SHT31;63012;51.096;-115.366;2022-11-20T00:38:57;-3.99;53.92
74534;SHT31;63012;51.096;-115.366;2022-11-20T00:41:25;-4.01;53.37
74534;SHT31;63012;51.096;-115.366;2022-11-20T00:43:54;-4.03;53.51
74534;SHT31;63012;51.096;-115.366;2022-11-20T00:46:22;-4.04;53.77
74534;SHT31;63012;51.096;-115.366;2022-11-20T00:48:52;-4.12;54.80
74534;SHT31;63012;51.096;-115.366;2022-11-20T00:51:20;-4.19;55.23
74534;SHT31;63012;51.096;-115.366;2022-11-20T00:53:50;-4.26;55.57
74534;SHT31;63012;51.096;-115.366;2022-11-20T00:56:20;-4.35;55.66
74534;SHT31;63012;51.096;-115.366;2022-11-20T00:58:47;-4.41;55.98
74534;SHT31;63012;51.096;-115.366;2022-11-20T01:01:16;-4.45;55.80
74534;SHT31;63012;51.096;-115.366;2022-11-20T01:03:46;-4.48;55.59
74534;SHT31;63012;51.096;-115.366;2022-11-20T01:06:19;-4.47;55.79
74534;SHT31;63012;51.096;-115.366;2022-11-20T01:08:53;-4.49;56.17
74534;SHT31;63012;51.096;-115.366;2022-11-20T01:11:24;-4.49;56.36
74534;SHT31;63012;51.096;-115.366;2022-11-20T01:13:54;-4.48;56.20
74534;SHT31;63012;51.096;-115.366;2022-11-20T01:16:24;-4.47;56.80
74534;SHT31;63012;51.096;-115.366;2022-11-20T01:18:59;-4.47;56.62
74534;SHT31;63012;51.096;-115.366;2022-11-20T01:21:31;-4.45;55.81
74534;SHT31;63012;51.096;-115.366;2022-11-20T01:24:01;-4.43;55.81
74534;SHT31;63012;51.096;-115.366;2022-11-20T01:26:32;-4.39;55.81
74534;SHT31;63012;51.096;-115.366;2022-11-20T01:29:02;-4.41;55.96
74534;SHT31;63012;51.096;-115.366;2022-11-20T01:31:31;-4.45;56.29
74534;SHT31;63012;51.096;-115.366;2022-11-20T01:34:03;-4.50;56.27
74534;SHT31;63012;51.096;-115.366;2022-11-20T01:36:33;-4.52;56.46
74534;SHT31;63012;51.096;-115.366;2022-11-20T01:39:10;-4.55;56.81
74534;SHT31;63012;51.096;-115.366;2022-11-20T01:41:42;-4.58;56.54
74534;SHT31;63012;51.096;-115.366;2022-11-20T01:44:51;-4.60;56.60
74534;SHT31;63012;51.096;-115.366;2022-11-20T01:47:43;-4.63;56.37
74534;SHT31;63012;51.096;-115.366;2022-11-20T01:50:17;-4.64;57.04
74534;SHT31;63012;51.096;-115.366;2022-11-20T01:52:59;-4.63;56.84
74534;SHT31;63012;51.096;-115.366;2022-11-20T01:55:34;-4.61;56.44
74534;SHT31;63012;51.096;-115.366;2022-11-20T01:58:08;-4.63;56.74
74534;SHT31;63012;51.096;-115.366;2022-11-20T02:00:35;-4.64;56.87
74534;SHT31;63012;51.096;-115.366;2022-11-20T02:03:06;-4.65;57.32
74534;SHT31;63012;51.096;-115.366;2022-11-20T02:08:44;-4.67;56.91
74534;SHT31;63012;51.096;-115.366;2022-11-20T02:11:11;-4.68;56.80
74534;SHT31;63012;51.096;-115.366;2022-11-20T02:13:38;-4.72;57.37
74534;SHT31;63012;51.096;-115.366;2022-11-20T02:18:51;-4.84;57.02
74534;SHT31;63012;51.096;-115.366;2022-11-20T02:26:45;-4.91;57.27
74534;SHT31;63012;51.096;-115.366;2022-11-20T02:32:34;-5.00;57.42
74534;SHT31;63012;51.096;-115.366;2022-11-20T02:37:48;-5.10;57.58
74534;SHT31;63012;51.096;-115.366;2022-11-20T02:40:20;-5.18;58.14
74534;SHT31;63012;51.096;-115.366;2022-11-20T02:42:47;-5.13;57.40
74534;SHT31;63012;51.096;-115.366;2022-11-20T02:45:18;-5.01;57.16
74534;SHT31;63012;51.096;-115.366;2022-11-20T02:47:46;-4.92;56.73
74534;SHT31;63012;51.096;-115.366;2022-11-20T02:50:13;-4.95;56.59
74534;SHT31;63012;51.096;-115.366;2022-11-20T02:52:40;-4.89;56.11
74534;SHT31;63012;51.096;-115.366;2022-11-20T02:55:08;-4.84;57.05
74534;SHT31;63012;51.096;-115.366;2022-11-20T02:57:35;-4.84;56.64
74534;SHT31;63012;51.096;-115.366;2022-11-20T03:00:03;-4.81;55.86
74534;SHT31;63012;51.096;-115.366;2022-11-20T03:02:32;-4.78;55.09
74534;SHT31;63012;51.096;-115.366;2022-11-20T03:05:00;-4.74;55.34
74534;SHT31;63012;51.096;-115.366;2022-11-20T03:07:27;-4.74;55.88
74534;SHT31;63012;51.096;-115.366;2022-11-20T03:09:54;-4.83;55.63
74534;SHT31;63012;51.096;-115.366;2022-11-20T03:12:21;-4.93;55.40
74534;SHT31;63012;51.096;-115.366;2022-11-20T03:14:48;-4.94;55.23
74534;SHT31;63012;51.096;-115.366;2022-11-20T03:17:15;-4.99;55.81
74534;SHT31;63012;51.096;-115.366;2022-11-20T03:19:42;-5.04;56.17
74534;SHT31;63012;51.096;-115.366;2022-11-20T03:22:09;-5.00;55.60
74534;SHT31;63012;51.096;-115.366;2022-11-20T03:24:36;-4.99;55.84
74534;SHT31;63012;51.096;-115.366;2022-11-20T03:27:04;-5.03;55.19
74534;SHT31;63012;51.096;-115.366;2022-11-20T03:29:30;-5.03;55.35
74534;SHT31;63012;51.096;-115.366;2022-11-20T03:31:58;-4.99;54.96
74534;SHT31;63012;51.096;-115.366;2022-11-20T03:34:25;-5.00;55.42
74534;SHT31;63012;51.096;-115.366;2022-11-20T03:36:52;-5.08;55.76
74534;SHT31;63012;51.096;-115.366;2022-11-20T03:39:19;-5.16;55.57
74534;SHT31;63012;51.096;-115.366;2022-11-20T03:41:46;-5.21;55.61
74534;SHT31;63012;51.096;-115.366;2022-11-20T03:44:13;-5.24;55.58
74534;SHT31;63012;51.096;-115.366;2022-11-20T03:46:40;-5.32;55.93
74534;SHT31;63012;51.096;-115.366;2022-11-20T03:49:07;-5.37;56.19
74534;SHT31;63012;51.096;-115.366;2022-11-20T03:51:35;-5.44;56.48
74534;SHT31;63012;51.096;-115.366;2022-11-20T03:54:03;-5.53;56.62
74534;SHT31;63012;51.096;-115.366;2022-11-20T03:56:36;-5.57;56.51
74534;SHT31;63012;51.096;-115.366;2022-11-20T03:59:05;-5.58;56.97
74534;SHT31;63012;51.096;-115.366;2022-11-20T04:01:35;-5.65;57.02
74534;SHT31;63012;51.096;-115.366;2022-11-20T04:04:03;-5.71;57.06
74534;SHT31;63012;51.096;-115.366;2022-11-20T04:06:33;-5.75;57.11
74534;SHT31;63012;51.096;-115.366;2022-11-20T04:09:03;-5.79;57.12
74534;SHT31;63012;51.096;-115.366;2022-11-20T04:11:32;-5.81;57.20
74534;SHT31;63012;51.096;-115.366;2022-11-20T04:14:05;-5.85;57.44
74534;SHT31;63012;51.096;-115.366;2022-11-20T04:16:39;-5.90;57.32
74534;SHT31;63012;51.096;-115.366;2022-11-20T04:19:09;-5.90;56.95
74534;SHT31;63012;51.096;-115.366;2022-11-20T04:21:38;-5.79;57.18
74534;SHT31;63012;51.096;-115.366;2022-11-20T04:24:06;-5.74;56.51
74534;SHT31;63012;51.096;-115.366;2022-11-20T04:26:33;-5.58;56.09
74534;SHT31;63012;51.096;-115.366;2022-11-20T04:29:01;-5.49;56.10
74534;SHT31;63012;51.096;-115.366;2022-11-20T04:31:30;-5.51;56.89
74534;SHT31;63012;51.096;-115.366;2022-11-20T04:34:00;-5.66;56.91
74534;SHT31;63012;51.096;-115.366;2022-11-20T04:36:29;-5.84;57.32
74534;SHT31;63012;51.096;-115.366;2022-11-20T04:39:01;-5.96;57.29
74534;SHT31;63012;51.096;-115.366;2022-11-20T04:41:32;-6.05;57.84
74534;SHT31;63012;51.096;-115.366;2022-11-20T04:44:02;-6.11;57.81
74534;SHT31;63012;51.096;-115.366;2022-11-20T04:46:32;-6.17;57.97
74534;SHT31;63012;51.096;-115.366;2022-11-20T04:49:05;-6.18;58.06
74534;SHT31;63012;51.096;-115.366;2022-11-20T04:51:33;-6.17;57.84
74534;SHT31;63012;51.096;-115.366;2022-11-20T04:54:00;-6.13;58.02
74534;SHT31;63012;51.096;-115.366;2022-11-20T04:56:27;-6.05;58.22
74534;SHT31;63012;51.096;-115.366;2022-11-20T04:58:55;-5.96;58.27
74534;SHT31;63012;51.096;-115.366;2022-11-20T05:01:26;-5.83;57.61
74534;SHT31;63012;51.096;-115.366;2022-11-20T05:03:54;-5.70;57.63
74534;SHT31;63012;51.096;-115.366;2022-11-20T05:06:21;-5.67;57.81
74534;SHT31;63012;51.096;-115.366;2022-11-20T05:08:48;-5.71;57.60
74534;SHT31;63012;51.096;-115.366;2022-11-20T05:11:17;-5.79;57.80
74534;SHT31;63012;51.096;-115.366;2022-11-20T05:13:46;-5.84;58.41
74534;SHT31;63012;51.096;-115.366;2022-11-20T05:16:16;-5.93;58.37
74534;SHT31;63012;51.096;-115.366;2022-11-20T05:18:49;-6.01;57.93
74534;SHT31;63012;51.096;-115.366;2022-11-20T05:21:18;-6.05;58.23
74534;SHT31;63012;51.096;-115.366;2022-11-20T05:23:45;-6.05;57.59
74534;SHT31;63012;51.096;-115.366;2022-11-20T05:26:21;-6.01;58.06
74534;SHT31;63012;51.096;-115.366;2022-11-20T05:28:49;-6.00;57.94
74534;SHT31;63012;51.096;-115.366;2022-11-20T05:31:18;-6.04;58.68
74534;SHT31;63012;51.096;-115.366;2022-11-20T05:33:49;-6.09;58.75
74534;SHT31;63012;51.096;-115.366;2022-11-20T05:36:17;-6.07;58.27
74534;SHT31;63012;51.096;-115.366;2022-11-20T05:38:44;-6.09;58.21
74534;SHT31;63012;51.096;-115.366;2022-11-20T05:41:12;-6.10;58.62
74534;SHT31;63012;51.096;-115.366;2022-11-20T05:43:43;-6.14;58.78
74534;SHT31;63012;51.096;-115.366;2022-11-20T05:46:13;-6.22;58.91
74534;SHT31;63012;51.096;-115.366;2022-11-20T05:48:43;-6.33;59.21
74534;SHT31;63012;51.096;-115.366;2022-11-20T05:51:13;-6.43;59.64
74534;SHT31;63012;51.096;-115.366;2022-11-20T05:53:43;-6.51;59.87
74534;SHT31;63012;51.096;-115.366;2022-11-20T05:56:12;-6.55;60.26
74534;SHT31;63012;51.096;-115.366;2022-11-20T05:58:44;-6.57;60.31
74534;SHT31;63012;51.096;-115.366;2022-11-20T06:01:19;-6.61;59.64
74534;SHT31;63012;51.096;-115.366;2022-11-20T06:03:50;-6.61;60.05
74534;SHT31;63012;51.096;-115.366;2022-11-20T06:06:18;-6.66;60.29
74534;SHT31;63012;51.096;-115.366;2022-11-20T06:08:46;-6.67;60.50
74534;SHT31;63012;51.096;-115.366;2022-11-20T06:11:13;-6.65;60.26
74534;SHT31;63012;51.096;-115.366;2022-11-20T06:13:42;-6.50;59.05
74534;SHT31;63012;51.096;-115.366;2022-11-20T06:16:11;-6.40;59.19
74534;SHT31;63012;51.096;-115.366;2022-11-20T06:18:41;-6.28;57.91
74534;SHT31;63012;51.096;-115.366;2022-11-20T06:21:18;-6.17;57.79
74534;SHT31;63012;51.096;-115.366;2022-11-20T06:23:48;-6.12;57.87
74534;SHT31;63012;51.096;-115.366;2022-11-20T06:26:18;-6.07;57.29
74534;SHT31;63012;51.096;-115.366;2022-11-20T06:28:49;-6.01;56.65
74534;SHT31;63012;51.096;-115.366;2022-11-20T06:31:18;-6.03;57.02
74534;SHT31;63012;51.096;-115.366;2022-11-20T06:33:49;-6.10;57.16
74534;SHT31;63012;51.096;-115.366;2022-11-20T06:36:18;-6.10;56.50
74534;SHT31;63012;51.096;-115.366;2022-11-20T06:38:48;-6.08;57.09
74534;SHT31;63012;51.096;-115.366;2022-11-20T06:41:16;-6.07;57.78
74534;SHT31;63012;51.096;-115.366;2022-11-20T06:43:46;-6.08;58.13
74534;SHT31;63012;51.096;-115.366;2022-11-20T06:46:13;-6.14;58.34
74534;SHT31;63012;51.096;-115.366;2022-11-20T06:48:45;-6.20;58.14
74534;SHT31;63012;51.096;-115.366;2022-11-20T06:51:15;-6.32;58.39
74534;SHT31;63012;51.096;-115.366;2022-11-20T06:53:43;-6.45;58.95
74534;SHT31;63012;51.096;-115.366;2022-11-20T06:56:10;-6.53;58.78
74534;SHT31;63012;51.096;-115.366;2022-11-20T06:58:37;-6.45;58.87
74534;SHT31;63012;51.096;-115.366;2022-11-20T07:01:12;-6.46;59.43
74534;SHT31;63012;51.096;-115.366;2022-11-20T07:03:40;-6.53;59.59
74534;SHT31;63012;51.096;-115.366;2022-11-20T07:06:08;-6.60;59.64
74534;SHT31;63012;51.096;-115.366;2022-11-20T07:08:36;-6.66;59.95
74534;SHT31;63012;51.096;-115.366;2022-11-20T07:11:04;-6.70;60.00
74534;SHT31;63012;51.096;-115.366;2022-11-20T07:13:33;-6.67;59.98
74534;SHT31;63012;51.096;-115.366;2022-11-20T07:16:01;-6.66;59.90
74534;SHT31;63012;51.096;-115.366;2022-11-20T07:18:32;-6.71;59.97
74534;SHT31;63012;51.096;-115.366;2022-11-20T07:21:00;-6.74;60.00
74534;SHT31;63012;51.096;-115.366;2022-11-20T07:23:30;-6.80;60.24
74534;SHT31;63012;51.096;-115.366;2022-11-20T07:25:57;-6.80;59.80
74534;SHT31;63012;51.096;-115.366;2022-11-20T07:28:31;-6.88;59.72
74534;SHT31;63012;51.096;-115.366;2022-11-20T07:30:58;-7.00;60.06
74534;SHT31;63012;51.096;-115.366;2022-11-20T07:33:26;-7.12;60.11
74534;SHT31;63012;51.096;-115.366;2022-11-20T07:35:53;-7.21;60.36
74534;SHT31;63012;51.096;-115.366;2022-11-20T07:38:20;-7.30;60.59
74534;SHT31;63012;51.096;-115.366;2022-11-20T07:40:46;-7.38;61.25
74534;SHT31;63012;51.096;-115.366;2022-11-20T07:43:14;-7.45;61.47
74534;SHT31;63012;51.096;-115.366;2022-11-20T07:45:40;-7.52;61.55
74534;SHT31;63012;51.096;-115.366;2022-11-20T07:48:07;-7.56;61.84
74534;SHT31;63012;51.096;-115.366;2022-11-20T07:50:34;-7.57;62.00
74534;SHT31;63012;51.096;-115.366;2022-11-20T07:53:02;-7.54;62.64
74534;SHT31;63012;51.096;-115.366;2022-11-20T07:55:33;-7.48;62.43
74534;SHT31;63012;51.096;-115.366;2022-11-20T07:58:00;-7.45;62.28
74534;SHT31;63012;51.096;-115.366;2022-11-20T08:00:27;-7.43;62.44
74534;SHT31;63012;51.096;-115.366;2022-11-20T08:02:54;-7.39;62.62
74534;SHT31;63012;51.096;-115.366;2022-11-20T08:05:21;-7.35;62.69
74534;SHT31;63012;51.096;-115.366;2022-11-20T08:07:48;-7.30;62.77
74534;SHT31;63012;51.096;-115.366;2022-11-20T08:10:16;-7.22;62.56
74534;SHT31;63012;51.096;-115.366;2022-11-20T08:12:44;-7.23;62.63
74534;SHT31;63012;51.096;-115.366;2022-11-20T08:15:36;-7.25;62.74
74534;SHT31;63012;51.096;-115.366;2022-11-20T08:18:05;-7.22;62.63
74534;SHT31;63012;51.096;-115.366;2022-11-20T08:20:36;-7.22;62.81
74534;SHT31;63012;51.096;-115.366;2022-11-20T08:23:05;-7.21;62.70
74534;SHT31;63012;51.096;-115.366;2022-11-20T08:25:34;-7.25;62.62
74534;SHT31;63012;51.096;-115.366;2022-11-20T08:28:03;-7.30;62.12
74534;SHT31;63012;51.096;-115.366;2022-11-20T08:30:33;-7.38;62.12
74534;SHT31;63012;51.096;-115.366;2022-11-20T08:33:05;-7.45;62.28
74534;SHT31;63012;51.096;-115.366;2022-11-20T08:35:35;-7.50;62.04
74534;SHT31;63012;51.096;-115.366;2022-11-20T08:38:03;-7.59;62.45
74534;SHT31;63012;51.096;-115.366;2022-11-20T08:40:31;-7.70;62.44
74534;SHT31;63012;51.096;-115.366;2022-11-20T08:42:59;-7.78;62.86
74534;SHT31;63012;51.096;-115.366;2022-11-20T08:45:26;-7.85;63.03
74534;SHT31;63012;51.096;-115.366;2022-11-20T08:47:53;-7.89;62.76
74534;SHT31;63012;51.096;-115.366;2022-11-20T08:50:26;-7.91;63.12
74534;SHT31;63012;51.096;-115.366;2022-11-20T08:52:53;-7.93;63.07
74534;SHT31;63012;51.096;-115.366;2022-11-20T08:55:20;-7.91;62.71
74534;SHT31;63012;51.096;-115.366;2022-11-20T08:57:46;-7.87;62.80
74534;SHT31;63012;51.096;-115.366;2022-11-20T09:00:13;-7.85;62.77
74534;SHT31;63012;51.096;-115.366;2022-11-20T09:02:41;-7.83;62.82
74534;SHT31;63012;51.096;-115.366;2022-11-20T09:05:08;-7.83;62.93
74534;SHT31;63012;51.096;-115.366;2022-11-20T09:07:36;-7.84;63.13
74534;SHT31;63012;51.096;-115.366;2022-11-20T09:10:03;-7.83;62.98
74534;SHT31;63012;51.096;-115.366;2022-11-20T09:12:30;-7.81;62.76
74534;SHT31;63012;51.096;-115.366;2022-11-20T09:14:57;-7.79;62.68
74534;SHT31;63012;51.096;-115.366;2022-11-20T09:17:24;-7.79;62.04
74534;SHT31;63012;51.096;-115.366;2022-11-20T09:19:51;-7.78;61.95
74534;SHT31;63012;51.096;-115.366;2022-11-20T09:22:19;-7.79;62.05
74534;SHT31;63012;51.096;-115.366;2022-11-20T09:24:46;-7.78;62.68
74534;SHT31;63012;51.096;-115.366;2022-11-20T09:27:13;-7.79;62.49
74534;SHT31;63012;51.096;-115.366;2022-11-20T09:29:40;-7.80;62.44
74534;SHT31;63012;51.096;-115.366;2022-11-20T09:32:07;-7.84;62.73
74534;SHT31;63012;51.096;-115.366;2022-11-20T09:34:34;-7.84;62.54
74534;SHT31;63012;51.096;-115.366;2022-11-20T09:37:01;-7.86;62.67
74534;SHT31;63012;51.096;-115.366;2022-11-20T09:39:28;-7.88;62.70
74534;SHT31;63012;51.096;-115.366;2022-11-20T09:42:07;-7.92;62.76
74534;SHT31;63012;51.096;-115.366;2022-11-20T09:47:48;-7.93;62.70
74534;SHT31;63012;51.096;-115.366;2022-11-20T09:53:23;-7.89;62.62
74534;SHT31;63012;51.096;-115.366;2022-11-20T09:56:10;-7.88;62.42
74534;SHT31;63012;51.096;-115.366;2022-11-20T09:58:41;-7.88;62.80
74534;SHT31;63012;51.096;-115.366;2022-11-20T10:01:33;-7.87;62.61
74534;SHT31;63012;51.096;-115.366;2022-11-20T10:04:04;-7.88;62.56
74534;SHT31;63012;51.096;-115.366;2022-11-20T10:09:40;-7.90;62.70
74534;SHT31;63012;51.096;-115.366;2022-11-20T10:19:00;-7.90;63.14
74534;SHT31;63012;51.096;-115.366;2022-11-20T10:21:58;-7.90;63.33
74534;SHT31;63012;51.096;-115.366;2022-11-20T10:24:48;-7.87;63.27
74534;SHT31;63012;51.096;-115.366;2022-11-20T10:30:57;-7.80;62.81
74534;SHT31;63012;51.096;-115.366;2022-11-20T10:33:35;-7.78;62.54
74534;SHT31;63012;51.096;-115.366;2022-11-20T10:36:21;-7.74;62.45
74534;SHT31;63012;51.096;-115.366;2022-11-20T10:38:57;-7.71;62.33
74534;SHT31;63012;51.096;-115.366;2022-11-20T10:42:01;-7.67;62.25
74534;SHT31;63012;51.096;-115.366;2022-11-20T10:44:33;-7.63;62.17
74534;SHT31;63012;51.096;-115.366;2022-11-20T10:47:20;-7.58;61.45
74534;SHT31;63012;51.096;-115.366;2022-11-20T10:49:49;-7.53;61.74
74534;SHT31;63012;51.096;-115.366;2022-11-20T10:56:07;-7.49;60.81
74534;SHT31;63012;51.096;-115.366;2022-11-20T10:59:04;-7.45;61.10
74534;SHT31;63012;51.096;-115.366;2022-11-20T11:02:18;-7.46;61.86
74534;SHT31;63012;51.096;-115.366;2022-11-20T11:04:53;-7.47;61.73
74534;SHT31;63012;51.096;-115.366;2022-11-20T11:07:24;-7.49;61.79
74534;SHT31;63012;51.096;-115.366;2022-11-20T11:10:13;-7.52;62.06
74534;SHT31;63012;51.096;-115.366;2022-11-20T11:13:06;-7.54;61.67
74534;SHT31;63012;51.096;-115.366;2022-11-20T11:15:44;-7.56;61.46
74534;SHT31;63012;51.096;-115.366;2022-11-20T11:18:11;-7.58;61.47
74534;SHT31;63012;51.096;-115.366;2022-11-20T11:20:53;-7.59;61.63
74534;SHT31;63012;51.096;-115.366;2022-11-20T11:23:35;-7.63;61.20
74534;SHT31;63012;51.096;-115.366;2022-11-20T11:26:17;-7.66;61.52
74534;SHT31;63012;51.096;-115.366;2022-11-20T11:28:54;-7.70;61.68
74534;SHT31;63012;51.096;-115.366;2022-11-20T11:31:30;-7.71;61.52
74534;SHT31;63012;51.096;-115.366;2022-11-20T11:34:03;-7.70;61.71
74534;SHT31;63012;51.096;-115.366;2022-11-20T11:36:38;-7.69;61.66
74534;SHT31;63012;51.096;-115.366;2022-11-20T11:39:06;-7.69;61.64
74534;SHT31;63012;51.096;-115.366;2022-11-20T11:41:41;-7.63;61.61
74534;SHT31;63012;51.096;-115.366;2022-11-20T11:53:17;-7.65;61.14
74534;SHT31;63012;51.096;-115.366;2022-11-20T11:55:56;-7.69;61.55
74534;SHT31;63012;51.096;-115.366;2022-11-20T11:58:46;-7.73;62.11
74534;SHT31;63012;51.096;-115.366;2022-11-20T12:01:31;-7.75;62.14
74534;SHT31;63012;51.096;-115.366;2022-11-20T12:13:23;-7.84;62.64
74534;SHT31;63012;51.096;-115.366;2022-11-20T12:16:10;-7.87;62.48
74534;SHT31;63012;51.096;-115.366;2022-11-20T12:18:42;-7.90;62.63
74534;SHT31;63012;51.096;-115.366;2022-11-20T12:21:24;-7.91;62.62
74534;SHT31;63012;51.096;-115.366;2022-11-20T12:48:00;-7.89;63.27
74534;SHT31;63012;51.096;-115.366;2022-11-20T12:51:09;-7.87;63.76
74534;SHT31;63012;51.096;-115.366;2022-11-20T12:54:21;-7.84;63.65
74534;SHT31;63012;51.096;-115.366;2022-11-20T12:57:23;-7.84;63.66
74534;SHT31;63012;51.096;-115.366;2022-11-20T13:00:17;-7.83;62.94
74534;SHT31;63012;51.096;-115.366;2022-11-20T13:03:51;-7.81;63.07
74534;SHT31;63012;51.096;-115.366;2022-11-20T13:06:17;-7.81;62.84
74534;SHT31;63012;51.096;-115.366;2022-11-20T13:08:49;-7.82;62.93
74534;SHT31;63012;51.096;-115.366;2022-11-20T13:19:11;-7.81;63.01
74534;SHT31;63012;51.096;-115.366;2022-11-20T13:21:45;-7.81;62.72
74534;SHT31;63012;51.096;-115.366;2022-11-20T13:29:38;-7.88;63.08
74534;SHT31;63012;51.096;-115.366;2022-11-20T13:32:14;-7.91;63.29
74534;SHT31;63012;51.096;-115.366;2022-11-20T13:34:54;-7.95;63.01
74534;SHT31;63012;51.096;-115.366;2022-11-20T13:37:31;-7.98;63.14
74534;SHT31;63012;51.096;-115.366;2022-11-20T13:42:56;-8.00;63.00
74534;SHT31;63012;51.096;-115.366;2022-11-20T13:47:53;-8.02;62.77
74534;SHT31;63012;51.096;-115.366;2022-11-20T13:50:25;-8.02;63.12
74534;SHT31;63012;51.096;-115.366;2022-11-20T13:53:21;-8.03;63.22
74534;SHT31;63012;51.096;-115.366;2022-11-20T14:02:20;-8.05;63.77
74534;SHT31;63012;51.096;-115.366;2022-11-20T14:04:52;-8.07;64.08
74534;SHT31;63012;51.096;-115.366;2022-11-20T14:07:35;-8.09;64.00
74534;SHT31;63012;51.096;-115.366;2022-11-20T14:10:24;-8.11;63.82
74534;SHT31;63012;51.096;-115.366;2022-11-20T14:12:55;-8.12;64.10
74534;SHT31;63012;51.096;-115.366;2022-11-20T14:15:30;-8.11;64.54
74534;SHT31;63012;51.096;-115.366;2022-11-20T14:17:59;-8.10;64.68
74534;SHT31;63012;51.096;-115.366;2022-11-20T14:20:45;-8.08;64.68
74534;SHT31;63012;51.096;-115.366;2022-11-20T14:23:12;-8.09;64.93
74534;SHT31;63012;51.096;-115.366;2022-11-20T14:25:50;-8.10;64.58
74534;SHT31;63012;51.096;-115.366;2022-11-20T14:28:25;-8.15;64.70
74534;SHT31;63012;51.096;-115.366;2022-11-20T14:30:54;-8.19;64.62
74534;SHT31;63012;51.096;-115.366;2022-11-20T14:33:23;-8.22;64.82
74534;SHT31;63012;51.096;-115.366;2022-11-20T14:35:53;-8.23;64.80
74534;SHT31;63012;51.096;-115.366;2022-11-20T14:38:27;-8.24;64.92
74534;SHT31;63012;51.096;-115.366;2022-11-20T14:41:08;-8.21;65.16
74534;SHT31;63012;51.096;-115.366;2022-11-20T14:43:51;-8.20;65.45
74534;SHT31;63012;51.096;-115.366;2022-11-20T14:46:25;-8.16;65.78
74534;SHT31;63012;51.096;-115.366;2022-11-20T14:48:56;-8.10;65.55
74534;SHT31;63012;51.096;-115.366;2022-11-20T14:51:34;-8.07;65.38
74534;SHT31;63012;51.096;-115.366;2022-11-20T14:54:10;-8.03;65.25
74534;SHT31;63012;51.096;-115.366;2022-11-20T14:56:38;-8.00;65.17
74534;SHT31;63012;51.096;-115.366;2022-11-20T14:59:05;-7.94;65.31
74534;SHT31;63012;51.096;-115.366;2022-11-20T15:01:34;-7.87;65.47
74534;SHT31;63012;51.096;-115.366;2022-11-20T15:06:38;-7.82;64.39
74534;SHT31;63012;51.096;-115.366;2022-11-20T15:09:18;-7.88;63.93
74534;SHT31;63012;51.096;-115.366;2022-11-20T15:11:58;-7.93;63.79
74534;SHT31;63012;51.096;-115.366;2022-11-20T15:14:29;-7.93;64.08
74534;SHT31;63012;51.096;-115.366;2022-11-20T15:17:00;-7.91;63.92
74534;SHT31;63012;51.096;-115.366;2022-11-20T15:19:27;-7.91;64.19
74534;SHT31;63012;51.096;-115.366;2022-11-20T15:21:54;-7.91;64.16
74534;SHT31;63012;51.096;-115.366;2022-11-20T15:24:21;-7.88;64.56
74534;SHT31;63012;51.096;-115.366;2022-11-20T15:26:49;-7.86;64.68
74534;SHT31;63012;51.096;-115.366;2022-11-20T15:29:16;-7.86;64.65
74534;SHT31;63012;51.096;-115.366;2022-11-20T15:31:44;-7.84;64.67
74534;SHT31;63012;51.096;-115.366;2022-11-20T15:34:12;-7.81;64.49
74534;SHT31;63012;51.096;-115.366;2022-11-20T15:36:43;-7.77;64.66
74534;SHT31;63012;51.096;-115.366;2022-11-20T15:39:10;-7.68;64.70
74534;SHT31;63012;51.096;-115.366;2022-11-20T15:41:37;-7.59;64.06
74534;SHT31;63012;51.096;-115.366;2022-11-20T15:44:04;-7.51;64.10
74534;SHT31;63012;51.096;-115.366;2022-11-20T15:46:32;-7.42;64.62
74534;SHT31;63012;51.096;-115.366;2022-11-20T15:49:05;-7.32;64.66
74534;SHT31;63012;51.096;-115.366;2022-11-20T15:51:40;-7.24;63.99
74534;SHT31;63012;51.096;-115.366;2022-11-20T15:54:16;-7.14;63.66
74534;SHT31;63012;51.096;-115.366;2022-11-20T15:56:47;-6.98;63.35
74534;SHT31;63012;51.096;-115.366;2022-11-20T15:59:17;-6.81;62.71
74534;SHT31;63012;51.096;-115.366;2022-11-20T16:01:44;-6.66;62.48
74534;SHT31;63012;51.096;-115.366;2022-11-20T16:04:12;-6.60;62.32
74534;SHT31;63012;51.096;-115.366;2022-11-20T16:06:41;-6.57;61.94
74534;SHT31;63012;51.096;-115.366;2022-11-20T16:09:09;-6.55;61.55
74534;SHT31;63012;51.096;-115.366;2022-11-20T16:11:36;-6.49;61.79
74534;SHT31;63012;51.096;-115.366;2022-11-20T16:14:04;-6.47;61.93
74534;SHT31;63012;51.096;-115.366;2022-11-20T16:16:49;-6.38;61.68
74534;SHT31;63012;51.096;-115.366;2022-11-20T16:19:16;-6.28;62.03
74534;SHT31;63012;51.096;-115.366;2022-11-20T16:21:43;-6.23;61.69
74534;SHT31;63012;51.096;-115.366;2022-11-20T16:24:11;-6.18;61.22
74534;SHT31;63012;51.096;-115.366;2022-11-20T16:26:41;-6.15;61.46
74534;SHT31;63012;51.096;-115.366;2022-11-20T16:29:08;-6.15;60.86
74534;SHT31;63012;51.096;-115.366;2022-11-20T16:31:35;-6.16;61.55
74534;SHT31;63012;51.096;-115.366;2022-11-20T16:34:04;-6.15;61.27
74534;SHT31;63012;51.096;-115.366;2022-11-20T16:36:33;-6.14;61.22
74534;SHT31;63012;51.096;-115.366;2022-11-20T16:39:01;-6.11;61.37
74534;SHT31;63012;51.096;-115.366;2022-11-20T16:41:33;-6.07;61.48
74534;SHT31;63012;51.096;-115.366;2022-11-20T16:44:02;-6.05;61.57
74534;SHT31;63012;51.096;-115.366;2022-11-20T16:46:35;-6.04;61.46
74534;SHT31;63012;51.096;-115.366;2022-11-20T16:49:03;-6.03;61.38
74534;SHT31;63012;51.096;-115.366;2022-11-20T16:51:36;-5.99;60.70
74534;SHT31;63012;51.096;-115.366;2022-11-20T16:54:03;-5.94;61.03
74534;SHT31;63012;51.096;-115.366;2022-11-20T16:56:32;-5.90;61.01
74534;SHT31;63012;51.096;-115.366;2022-11-20T16:59:00;-5.85;61.15
74534;SHT31;63012;51.096;-115.366;2022-11-20T17:01:29;-5.78;60.79
74534;SHT31;63012;51.096;-115.366;2022-11-20T17:04:00;-5.73;60.43
74534;SHT31;63012;51.096;-115.366;2022-11-20T17:06:35;-5.70;60.63